sensor_id;sensor_type;location;lat;lon;timestamp;temperature;humidity
77700;DHT22;66867;42.658;23.320;2023-02-15T00:00:00;5.0;73
77700;DHT22;66867;42.658;23.320;2023-02-15T00:01:08;5.0;73
77700;DHT22;66867;42.658;23.320;2023-02-15T00:02:00;5.1;72
77700;DHT22;66867;42.658;23.320;2023-02-15T00:03:00;5.0;72
77700;DHT22;66867;42.658;23.320;2023-02-15T00:04:00;5.0;73
77700;DHT22;66867;42.658;23.320;2023-02-15T00:05:00;5.1;73
77700;DHT22;66867;42.658;23.320;2023-02-15T00:06:00;5.1;72
77700;DHT22;66867;42.658;23.320;2023-02-15T00:07:00;5.0;73
77700;DHT22;66867;42.658;23.320;2023-02-15T00:08:00;5.0;73
77700;DHT22;66867;42.658;23.320;2023-02-15T00:09:00;5.0;73
77700;DHT22;66867;42.658;23.320;2023-02-15T00:10:00;5.0;72
77700;DHT22;66867;42.658;23.320;2023-02-15T00:11:04;5.1;72
77700;DHT22;66867;42.658;23.320;2023-02-15T00:12:00;5.1;72
77700;DHT22;66867;42.658;23.320;2023-02-15T00:13:00;5.0;73
77700;DHT22;66867;42.658;23.320;2023-02-15T00:14:00;4.9;73
77700;DHT22;66867;42.658;23.320;2023-02-15T00:15:00;4.9;73
77700;DHT22;66867;42.658;23.320;2023-02-15T00:16:01;4.9;73
77700;DHT22;66867;42.658;23.320;2023-02-15T00:17:00;4.9;73
77700;DHT22;66867;42.658;23.320;2023-02-15T00:18:00;5.0;73
77700;DHT22;66867;42.658;23.320;2023-02-15T00:19:00;5.0;72
77700;DHT22;66867;42.658;23.320;2023-02-15T00:20:00;5.1;72
77700;DHT22;66867;42.658;23.320;2023-02-15T00:21:04;5.0;73
77700;DHT22;66867;42.658;23.320;2023-02-15T00:22:00;5.0;73
77700;DHT22;66867;42.658;23.320;2023-02-15T00:23:00;5.0;72
77700;DHT22;66867;42.658;23.320;2023-02-15T00:24:01;5.1;72
77700;DHT22;66867;42.658;23.320;2023-02-15T00:25:00;5.1;72
77700;DHT22;66867;42.658;23.320;2023-02-15T00:26:04;5.1;72
77700;DHT22;66867;42.658;23.320;2023-02-15T00:27:00;5.1;72
77700;DHT22;66867;42.658;23.320;2023-02-15T00:28:00;5.1;72
77700;DHT22;66867;42.658;23.320;2023-02-15T00:29:00;5.2;72
77700;DHT22;66867;42.658;23.320;2023-02-15T00:30:00;5.1;72
77700;DHT22;66867;42.658;23.320;2023-02-15T00:31:02;5.1;72
77700;DHT22;66867;42.658;23.320;2023-02-15T00:32:00;5.0;73
77700;DHT22;66867;42.658;23.320;2023-02-15T00:33:00;5.0;73
77700;DHT22;66867;42.658;23.320;2023-02-15T00:34:02;5.0;73
77700;DHT22;66867;42.658;23.320;2023-02-15T00:35:00;5.0;73
77700;DHT22;66867;42.658;23.320;2023-02-15T00:36:01;5.0;73
77700;DHT22;66867;42.658;23.320;2023-02-15T00:37:00;5.1;73
77700;DHT22;66867;42.658;23.320;2023-02-15T00:38:00;5.1;73
77700;DHT22;66867;42.658;23.320;2023-02-15T00:39:00;5.1;72
77700;DHT22;66867;42.658;23.320;2023-02-15T00:40:00;5.1;72
77700;DHT22;66867;42.658;23.320;2023-02-15T00:41:01;5.1;72
77700;DHT22;66867;42.658;23.320;2023-02-15T00:42:00;5.2;72
77700;DHT22;66867;42.658;23.320;2023-02-15T00:43:00;5.1;72
77700;DHT22;66867;42.658;23.320;2023-02-15T00:44:00;5.2;72
77700;DHT22;66867;42.658;23.320;2023-02-15T00:45:00;5.2;72
77700;DHT22;66867;42.658;23.320;2023-02-15T00:46:00;5.2;72
77700;DHT22;66867;42.658;23.320;2023-02-15T00:47:00;5.1;72
77700;DHT22;66867;42.658;23.320;2023-02-15T00:48:00;5.0;73
77700;DHT22;66867;42.658;23.320;2023-02-15T00:49:00;5.0;73
77700;DHT22;66867;42.658;23.320;2023-02-15T00:50:00;5.0;73
77700;DHT22;66867;42.658;23.320;2023-02-15T00:51:00;5.1;73
77700;DHT22;66867;42.658;23.320;2023-02-15T00:52:00;5.1;73
77700;DHT22;66867;42.658;23.320;2023-02-15T00:53:00;5.0;73
77700;DHT22;66867;42.658;23.320;2023-02-15T00:54:00;5.0;73
77700;DHT22;66867;42.658;23.320;2023-02-15T00:55:00;5.1;72
77700;DHT22;66867;42.658;23.320;2023-02-15T00:56:00;5.2;72
77700;DHT22;66867;42.658;23.320;2023-02-15T00:57:00;5.1;72
77700;DHT22;66867;42.658;23.320;2023-02-15T00:58:00;5.1;72
77700;DHT22;66867;42.658;23.320;2023-02-15T00:59:00;5.1;72
77700;DHT22;66867;42.658;23.320;2023-02-15T01:00:00;5.1;72
77700;DHT22;66867;42.658;23.320;2023-02-15T01:01:02;5.1;72
77700;DHT22;66867;42.658;23.320;2023-02-15T01:02:00;5.1;72
77700;DHT22;66867;42.658;23.320;2023-02-15T01:03:00;5.1;72
77700;DHT22;66867;42.658;23.320;2023-02-15T01:04:01;5.1;72
77700;DHT22;66867;42.658;23.320;2023-02-15T01:05:00;5.1;72
77700;DHT22;66867;42.658;23.320;2023-02-15T01:06:00;5.2;72
77700;DHT22;66867;42.658;23.320;2023-02-15T01:07:00;5.1;72
77700;DHT22;66867;42.658;23.320;2023-02-15T01:08:00;5.2;72
77700;DHT22;66867;42.658;23.320;2023-02-15T01:09:00;5.2;72
77700;DHT22;66867;42.658;23.320;2023-02-15T01:10:00;5.2;72
77700;DHT22;66867;42.658;23.320;2023-02-15T01:11:08;5.1;72
77700;DHT22;66867;42.658;23.320;2023-02-15T01:12:00;5.0;73
77700;DHT22;66867;42.658;23.320;2023-02-15T01:13:00;5.1;73
77700;DHT22;66867;42.658;23.320;2023-02-15T01:14:00;5.0;73
77700;DHT22;66867;42.658;23.320;2023-02-15T01:15:00;5.1;72
77700;DHT22;66867;42.658;23.320;2023-02-15T01:16:00;5.1;72
77700;DHT22;66867;42.658;23.320;2023-02-15T01:17:00;5.2;72
77700;DHT22;66867;42.658;23.320;2023-02-15T01:18:00;5.2;72
77700;DHT22;66867;42.658;23.320;2023-02-15T01:19:00;5.1;73
77700;DHT22;66867;42.658;23.320;2023-02-15T01:20:00;5.1;72
77700;DHT22;66867;42.658;23.320;2023-02-15T01:21:00;5.1;72
77700;DHT22;66867;42.658;23.320;2023-02-15T01:22:00;5.1;72
77700;DHT22;66867;42.658;23.320;2023-02-15T01:23:00;5.1;72
77700;DHT22;66867;42.658;23.320;2023-02-15T01:24:00;5.0;73
77700;DHT22;66867;42.658;23.320;2023-02-15T01:25:00;4.9;73
77700;DHT22;66867;42.658;23.320;2023-02-15T01:26:01;5.0;73
77700;DHT22;66867;42.658;23.320;2023-02-15T01:27:00;5.0;73
77700;DHT22;66867;42.658;23.320;2023-02-15T01:28:00;4.8;74
77700;DHT22;66867;42.658;23.320;2023-02-15T01:29:00;4.9;73
77700;DHT22;66867;42.658;23.320;2023-02-15T01:30:00;4.8;74
77700;DHT22;66867;42.658;23.320;2023-02-15T01:31:04;4.8;74
77700;DHT22;66867;42.658;23.320;2023-02-15T01:32:00;4.8;74
77700;DHT22;66867;42.658;23.320;2023-02-15T01:33:00;4.8;74
77700;DHT22;66867;42.658;23.320;2023-02-15T01:34:00;4.8;74
77700;DHT22;66867;42.658;23.320;2023-02-15T01:35:00;4.9;74
77700;DHT22;66867;42.658;23.320;2023-02-15T01:36:00;4.9;73
77700;DHT22;66867;42.658;23.320;2023-02-15T01:37:00;4.9;73
77700;DHT22;66867;42.658;23.320;2023-02-15T01:38:00;4.9;74
77700;DHT22;66867;42.658;23.320;2023-02-15T01:39:00;4.9;74
77700;DHT22;66867;42.658;23.320;2023-02-15T01:40:00;5.0;73
77700;DHT22;66867;42.658;23.320;2023-02-15T01:41:00;4.9;73
77700;DHT22;66867;42.658;23.320;2023-02-15T01:42:00;5.0;73
77700;DHT22;66867;42.658;23.320;2023-02-15T01:43:00;5.0;73
77700;DHT22;66867;42.658;23.320;2023-02-15T01:44:01;5.0;73
77700;DHT22;66867;42.658;23.320;2023-02-15T01:45:02;4.9;73
77700;DHT22;66867;42.658;23.320;2023-02-15T01:46:00;4.8;74
77700;DHT22;66867;42.658;23.320;2023-02-15T01:47:00;4.7;74
77700;DHT22;66867;42.658;23.320;2023-02-15T01:48:03;4.8;74
77700;DHT22;66867;42.658;23.320;2023-02-15T01:49:02;4.9;74
77700;DHT22;66867;42.658;23.320;2023-02-15T01:50:03;4.9;74
77700;DHT22;66867;42.658;23.320;2023-02-15T01:51:00;4.9;74
77700;DHT22;66867;42.658;23.320;2023-02-15T01:52:00;4.9;74
77700;DHT22;66867;42.658;23.320;2023-02-15T01:53:01;5.0;73
77700;DHT22;66867;42.658;23.320;2023-02-15T01:54:03;5.0;73
77700;DHT22;66867;42.658;23.320;2023-02-15T01:55:00;5.0;73
77700;DHT22;66867;42.658;23.320;2023-02-15T01:56:02;5.0;73
77700;DHT22;66867;42.658;23.320;2023-02-15T01:57:01;4.9;73
77700;DHT22;66867;42.658;23.320;2023-02-15T01:58:00;5.0;73
77700;DHT22;66867;42.658;23.320;2023-02-15T01:59:03;5.0;73
77700;DHT22;66867;42.658;23.320;2023-02-15T02:00:00;5.0;73
77700;DHT22;66867;42.658;23.320;2023-02-15T02:01:00;5.1;73
77700;DHT22;66867;42.658;23.320;2023-02-15T02:02:00;5.1;73
77700;DHT22;66867;42.658;23.320;2023-02-15T02:03:00;5.0;73
77700;DHT22;66867;42.658;23.320;2023-02-15T02:05:01;5.0;73
77700;DHT22;66867;42.658;23.320;2023-02-15T02:06:00;4.9;73
77700;DHT22;66867;42.658;23.320;2023-02-15T02:07:00;4.8;74
77700;DHT22;66867;42.658;23.320;2023-02-15T02:08:00;4.9;74
77700;DHT22;66867;42.658;23.320;2023-02-15T02:09:00;4.9;74
77700;DHT22;66867;42.658;23.320;2023-02-15T02:10:01;4.9;74
77700;DHT22;66867;42.658;23.320;2023-02-15T02:11:00;5.0;74
77700;DHT22;66867;42.658;23.320;2023-02-15T02:12:00;5.0;73
77700;DHT22;66867;42.658;23.320;2023-02-15T02:13:02;5.0;73
77700;DHT22;66867;42.658;23.320;2023-02-15T02:14:00;5.0;73
77700;DHT22;66867;42.658;23.320;2023-02-15T02:15:00;5.0;73
77700;DHT22;66867;42.658;23.320;2023-02-15T02:16:01;5.0;73
77700;DHT22;66867;42.658;23.320;2023-02-15T02:17:05;5.0;73
77700;DHT22;66867;42.658;23.320;2023-02-15T02:22:13;4.8;74
77700;DHT22;66867;42.658;23.320;2023-02-15T02:28:09;4.9;74
77700;DHT22;66867;42.658;23.320;2023-02-15T02:30:34;4.9;74
77700;DHT22;66867;42.658;23.320;2023-02-15T02:32:09;4.9;74
77700;DHT22;66867;42.658;23.320;2023-02-15T02:34:04;4.9;74
77700;DHT22;66867;42.658;23.320;2023-02-15T02:36:03;4.9;74
77700;DHT22;66867;42.658;23.320;2023-02-15T02:40:17;4.8;74
77700;DHT22;66867;42.658;23.320;2023-02-15T02:42:18;5.0;74
77700;DHT22;66867;42.658;23.320;2023-02-15T02:45:02;4.9;74
77700;DHT22;66867;42.658;23.320;2023-02-15T02:46:03;4.9;74
77700;DHT22;66867;42.658;23.320;2023-02-15T02:47:18;4.8;74
77700;DHT22;66867;42.658;23.320;2023-02-15T02:48:03;4.8;74
77700;DHT22;66867;42.658;23.320;2023-02-15T02:49:00;4.9;74
77700;DHT22;66867;42.658;23.320;2023-02-15T02:50:01;4.9;74
77700;DHT22;66867;42.658;23.320;2023-02-15T02:51:00;5.0;74
77700;DHT22;66867;42.658;23.320;2023-02-15T02:52:01;5.0;74
77700;DHT22;66867;42.658;23.320;2023-02-15T02:53:00;5.0;74
77700;DHT22;66867;42.658;23.320;2023-02-15T02:54:00;5.0;74
77700;DHT22;66867;42.658;23.320;2023-02-15T02:55:01;4.9;74
77700;DHT22;66867;42.658;23.320;2023-02-15T02:56:06;4.9;74
77700;DHT22;66867;42.658;23.320;2023-02-15T02:57:01;4.9;74
77700;DHT22;66867;42.658;23.320;2023-02-15T03:00:00;4.9;74
77700;DHT22;66867;42.658;23.320;2023-02-15T03:01:01;4.8;74
77700;DHT22;66867;42.658;23.320;2023-02-15T03:02:04;4.9;74
77700;DHT22;66867;42.658;23.320;2023-02-15T03:03:01;4.9;74
77700;DHT22;66867;42.658;23.320;2023-02-15T03:04:01;4.9;74
77700;DHT22;66867;42.658;23.320;2023-02-15T03:05:03;5.0;74
77700;DHT22;66867;42.658;23.320;2023-02-15T03:06:01;5.0;74
77700;DHT22;66867;42.658;23.320;2023-02-15T03:07:01;5.1;74
77700;DHT22;66867;42.658;23.320;2023-02-15T03:08:00;5.1;73
77700;DHT22;66867;42.658;23.320;2023-02-15T03:09:03;5.0;73
77700;DHT22;66867;42.658;23.320;2023-02-15T03:10:00;5.0;74
77700;DHT22;66867;42.658;23.320;2023-02-15T03:11:00;5.1;73
77700;DHT22;66867;42.658;23.320;2023-02-15T03:12:00;5.1;73
77700;DHT22;66867;42.658;23.320;2023-02-15T03:13:00;5.1;73
77700;DHT22;66867;42.658;23.320;2023-02-15T03:14:00;5.1;73
77700;DHT22;66867;42.658;23.320;2023-02-15T03:16:00;5.1;74
77700;DHT22;66867;42.658;23.320;2023-02-15T03:17:00;5.1;73
77700;DHT22;66867;42.658;23.320;2023-02-15T03:18:00;5.1;73
77700;DHT22;66867;42.658;23.320;2023-02-15T03:19:02;5.1;73
77700;DHT22;66867;42.658;23.320;2023-02-15T03:20:02;5.1;73
77700;DHT22;66867;42.658;23.320;2023-02-15T03:21:00;5.1;73
77700;DHT22;66867;42.658;23.320;2023-02-15T03:22:01;5.1;73
77700;DHT22;66867;42.658;23.320;2023-02-15T03:23:01;5.1;73
77700;DHT22;66867;42.658;23.320;2023-02-15T03:24:06;5.2;73
77700;DHT22;66867;42.658;23.320;2023-02-15T03:26:01;5.1;74
77700;DHT22;66867;42.658;23.320;2023-02-15T03:27:00;5.1;74
77700;DHT22;66867;42.658;23.320;2023-02-15T03:28:02;5.2;73
77700;DHT22;66867;42.658;23.320;2023-02-15T03:29:00;5.2;73
77700;DHT22;66867;42.658;23.320;2023-02-15T03:30:00;5.2;73
77700;DHT22;66867;42.658;23.320;2023-02-15T03:31:01;5.1;73
77700;DHT22;66867;42.658;23.320;2023-02-15T03:32:01;5.2;73
77700;DHT22;66867;42.658;23.320;2023-02-15T03:33:00;5.2;73
77700;DHT22;66867;42.658;23.320;2023-02-15T03:34:02;5.2;73
77700;DHT22;66867;42.658;23.320;2023-02-15T03:35:00;5.1;73
77700;DHT22;66867;42.658;23.320;2023-02-15T03:36:03;5.2;73
77700;DHT22;66867;42.658;23.320;2023-02-15T03:38:00;5.2;73
77700;DHT22;66867;42.658;23.320;2023-02-15T03:40:09;5.3;73
77700;DHT22;66867;42.658;23.320;2023-02-15T03:41:00;5.2;73
77700;DHT22;66867;42.658;23.320;2023-02-15T03:42:09;5.2;73
77700;DHT22;66867;42.658;23.320;2023-02-15T03:43:11;5.1;73
77700;DHT22;66867;42.658;23.320;2023-02-15T03:44:03;5.1;73
77700;DHT22;66867;42.658;23.320;2023-02-15T03:45:02;5.0;74
77700;DHT22;66867;42.658;23.320;2023-02-15T03:46:03;5.1;74
77700;DHT22;66867;42.658;23.320;2023-02-15T03:47:16;5.1;74
77700;DHT22;66867;42.658;23.320;2023-02-15T03:48:00;5.0;74
77700;DHT22;66867;42.658;23.320;2023-02-15T03:49:04;5.1;74
77700;DHT22;66867;42.658;23.320;2023-02-15T03:50:02;5.1;74
77700;DHT22;66867;42.658;23.320;2023-02-15T03:51:01;5.1;74
77700;DHT22;66867;42.658;23.320;2023-02-15T03:52:00;5.1;74
77700;DHT22;66867;42.658;23.320;2023-02-15T03:53:00;5.1;74
77700;DHT22;66867;42.658;23.320;2023-02-15T03:54:01;5.1;74
77700;DHT22;66867;42.658;23.320;2023-02-15T03:55:00;5.1;74
77700;DHT22;66867;42.658;23.320;2023-02-15T03:56:00;5.2;74
77700;DHT22;66867;42.658;23.320;2023-02-15T03:57:00;5.2;73
77700;DHT22;66867;42.658;23.320;2023-02-15T03:58:00;5.2;73
77700;DHT22;66867;42.658;23.320;2023-02-15T03:59:00;5.2;73
77700;DHT22;66867;42.658;23.320;2023-02-15T04:00:02;5.2;73
77700;DHT22;66867;42.658;23.320;2023-02-15T04:01:04;5.2;73
77700;DHT22;66867;42.658;23.320;2023-02-15T04:04:03;5.3;73
77700;DHT22;66867;42.658;23.320;2023-02-15T04:05:00;5.3;73
77700;DHT22;66867;42.658;23.320;2023-02-15T04:06:00;5.3;73
77700;DHT22;66867;42.658;23.320;2023-02-15T04:07:01;5.3;73
77700;DHT22;66867;42.658;23.320;2023-02-15T04:08:00;5.4;73
77700;DHT22;66867;42.658;23.320;2023-02-15T04:09:00;5.4;73
77700;DHT22;66867;42.658;23.320;2023-02-15T04:10:00;5.4;72
77700;DHT22;66867;42.658;23.320;2023-02-15T04:11:00;5.3;73
77700;DHT22;66867;42.658;23.320;2023-02-15T04:12:00;5.3;73
77700;DHT22;66867;42.658;23.320;2023-02-15T04:13:00;5.4;73
77700;DHT22;66867;42.658;23.320;2023-02-15T04:14:00;5.4;73
77700;DHT22;66867;42.658;23.320;2023-02-15T04:15:00;5.3;73
77700;DHT22;66867;42.658;23.320;2023-02-15T04:16:00;5.3;73
77700;DHT22;66867;42.658;23.320;2023-02-15T04:17:00;5.3;73
77700;DHT22;66867;42.658;23.320;2023-02-15T04:18:02;5.3;73
77700;DHT22;66867;42.658;23.320;2023-02-15T04:19:00;5.3;73
77700;DHT22;66867;42.658;23.320;2023-02-15T04:20:00;5.2;74
77700;DHT22;66867;42.658;23.320;2023-02-15T04:21:00;5.2;74
77700;DHT22;66867;42.658;23.320;2023-02-15T04:22:00;5.2;74
77700;DHT22;66867;42.658;23.320;2023-02-15T04:23:00;5.2;74
77700;DHT22;66867;42.658;23.320;2023-02-15T04:24:00;5.2;74
77700;DHT22;66867;42.658;23.320;2023-02-15T04:25:00;5.2;74
77700;DHT22;66867;42.658;23.320;2023-02-15T04:26:02;5.2;74
77700;DHT22;66867;42.658;23.320;2023-02-15T04:27:00;5.3;74
77700;DHT22;66867;42.658;23.320;2023-02-15T04:28:00;5.3;73
77700;DHT22;66867;42.658;23.320;2023-02-15T04:29:00;5.3;74
77700;DHT22;66867;42.658;23.320;2023-02-15T04:30:00;5.3;73
77700;DHT22;66867;42.658;23.320;2023-02-15T04:31:00;5.3;74
77700;DHT22;66867;42.658;23.320;2023-02-15T04:32:00;5.2;74
77700;DHT22;66867;42.658;23.320;2023-02-15T04:33:00;5.3;74
77700;DHT22;66867;42.658;23.320;2023-02-15T04:34:00;5.3;74
77700;DHT22;66867;42.658;23.320;2023-02-15T04:35:00;5.3;74
77700;DHT22;66867;42.658;23.320;2023-02-15T04:36:00;5.3;74
77700;DHT22;66867;42.658;23.320;2023-02-15T04:37:00;5.4;73
77700;DHT22;66867;42.658;23.320;2023-02-15T04:38:00;5.4;73
77700;DHT22;66867;42.658;23.320;2023-02-15T04:39:00;5.3;74
77700;DHT22;66867;42.658;23.320;2023-02-15T04:40:00;5.3;74
77700;DHT22;66867;42.658;23.320;2023-02-15T04:41:00;5.3;74
77700;DHT22;66867;42.658;23.320;2023-02-15T04:42:00;5.3;74
77700;DHT22;66867;42.658;23.320;2023-02-15T04:43:00;5.4;74
77700;DHT22;66867;42.658;23.320;2023-02-15T04:44:00;5.4;73
77700;DHT22;66867;42.658;23.320;2023-02-15T04:45:00;5.4;73
77700;DHT22;66867;42.658;23.320;2023-02-15T04:46:00;5.4;73
77700;DHT22;66867;42.658;23.320;2023-02-15T04:47:00;5.5;73
77700;DHT22;66867;42.658;23.320;2023-02-15T04:48:00;5.5;73
77700;DHT22;66867;42.658;23.320;2023-02-15T04:49:00;5.4;73
77700;DHT22;66867;42.658;23.320;2023-02-15T04:50:00;5.5;73
77700;DHT22;66867;42.658;23.320;2023-02-15T04:51:04;5.5;73
77700;DHT22;66867;42.658;23.320;2023-02-15T04:52:00;5.5;73
77700;DHT22;66867;42.658;23.320;2023-02-15T04:53:00;5.4;73
77700;DHT22;66867;42.658;23.320;2023-02-15T04:54:00;5.2;74
77700;DHT22;66867;42.658;23.320;2023-02-15T04:55:00;5.2;74
77700;DHT22;66867;42.658;23.320;2023-02-15T04:56:00;5.3;74
77700;DHT22;66867;42.658;23.320;2023-02-15T04:57:00;5.2;74
77700;DHT22;66867;42.658;23.320;2023-02-15T04:58:00;5.2;74
77700;DHT22;66867;42.658;23.320;2023-02-15T04:59:00;5.3;74
77700;DHT22;66867;42.658;23.320;2023-02-15T05:00:00;5.3;74
77700;DHT22;66867;42.658;23.320;2023-02-15T05:01:00;5.3;74
77700;DHT22;66867;42.658;23.320;2023-02-15T05:02:00;5.3;74
77700;DHT22;66867;42.658;23.320;2023-02-15T05:03:00;5.3;74
77700;DHT22;66867;42.658;23.320;2023-02-15T05:04:00;5.2;74
77700;DHT22;66867;42.658;23.320;2023-02-15T05:05:00;5.3;74
77700;DHT22;66867;42.658;23.320;2023-02-15T05:06:00;5.3;74
77700;DHT22;66867;42.658;23.320;2023-02-15T05:07:00;5.4;74
77700;DHT22;66867;42.658;23.320;2023-02-15T05:08:00;5.3;74
77700;DHT22;66867;42.658;23.320;2023-02-15T05:09:00;5.4;74
77700;DHT22;66867;42.658;23.320;2023-02-15T05:10:00;5.4;74
77700;DHT22;66867;42.658;23.320;2023-02-15T05:11:00;5.4;74
77700;DHT22;66867;42.658;23.320;2023-02-15T05:12:00;5.3;74
77700;DHT22;66867;42.658;23.320;2023-02-15T05:13:00;5.3;74
77700;DHT22;66867;42.658;23.320;2023-02-15T05:14:00;5.3;74
77700;DHT22;66867;42.658;23.320;2023-02-15T05:15:00;5.3;74
77700;DHT22;66867;42.658;23.320;2023-02-15T05:16:00;5.4;74
77700;DHT22;66867;42.658;23.320;2023-02-15T05:17:00;5.4;74
77700;DHT22;66867;42.658;23.320;2023-02-15T05:18:00;5.4;74
77700;DHT22;66867;42.658;23.320;2023-02-15T05:19:00;5.4;74
77700;DHT22;66867;42.658;23.320;2023-02-15T05:20:00;5.4;73
77700;DHT22;66867;42.658;23.320;2023-02-15T05:21:00;5.4;74
77700;DHT22;66867;42.658;23.320;2023-02-15T05:22:00;5.4;73
77700;DHT22;66867;42.658;23.320;2023-02-15T05:23:00;5.5;73
77700;DHT22;66867;42.658;23.320;2023-02-15T05:24:00;5.5;73
77700;DHT22;66867;42.658;23.320;2023-02-15T05:25:00;5.5;73
77700;DHT22;66867;42.658;23.320;2023-02-15T05:26:00;5.5;73
77700;DHT22;66867;42.658;23.320;2023-02-15T05:27:00;5.5;73
77700;DHT22;66867;42.658;23.320;2023-02-15T05:28:01;5.4;73
77700;DHT22;66867;42.658;23.320;2023-02-15T05:29:00;5.3;74
77700;DHT22;66867;42.658;23.320;2023-02-15T05:30:00;5.3;74
77700;DHT22;66867;42.658;23.320;2023-02-15T05:31:06;5.3;74
77700;DHT22;66867;42.658;23.320;2023-02-15T05:32:00;5.3;74
77700;DHT22;66867;42.658;23.320;2023-02-15T05:33:00;5.3;74
77700;DHT22;66867;42.658;23.320;2023-02-15T05:34:00;5.4;74
77700;DHT22;66867;42.658;23.320;2023-02-15T05:35:00;5.4;74
77700;DHT22;66867;42.658;23.320;2023-02-15T05:36:00;5.5;74
77700;DHT22;66867;42.658;23.320;2023-02-15T05:37:00;5.5;74
77700;DHT22;66867;42.658;23.320;2023-02-15T05:38:00;5.5;73
77700;DHT22;66867;42.658;23.320;2023-02-15T05:39:00;5.5;73
77700;DHT22;66867;42.658;23.320;2023-02-15T05:40:00;5.5;73
77700;DHT22;66867;42.658;23.320;2023-02-15T05:41:00;5.5;73
77700;DHT22;66867;42.658;23.320;2023-02-15T05:42:00;5.5;74
77700;DHT22;66867;42.658;23.320;2023-02-15T05:43:00;5.5;74
77700;DHT22;66867;42.658;23.320;2023-02-15T05:44:00;5.5;73
77700;DHT22;66867;42.658;23.320;2023-02-15T05:45:00;5.4;74
77700;DHT22;66867;42.658;23.320;2023-02-15T05:46:00;5.5;74
77700;DHT22;66867;42.658;23.320;2023-02-15T05:48:00;5.5;74
77700;DHT22;66867;42.658;23.320;2023-02-15T05:49:00;5.5;74
77700;DHT22;66867;42.658;23.320;2023-02-15T05:50:00;5.5;74
77700;DHT22;66867;42.658;23.320;2023-02-15T05:51:01;5.4;74
77700;DHT22;66867;42.658;23.320;2023-02-15T05:52:00;5.4;74
77700;DHT22;66867;42.658;23.320;2023-02-15T05:53:00;5.4;74
77700;DHT22;66867;42.658;23.320;2023-02-15T05:54:00;5.5;74
77700;DHT22;66867;42.658;23.320;2023-02-15T05:55:00;5.5;74
77700;DHT22;66867;42.658;23.320;2023-02-15T05:56:00;5.4;74
77700;DHT22;66867;42.658;23.320;2023-02-15T05:57:00;5.4;74
77700;DHT22;66867;42.658;23.320;2023-02-15T05:58:00;5.4;74
77700;DHT22;66867;42.658;23.320;2023-02-15T05:59:00;5.5;74
77700;DHT22;66867;42.658;23.320;2023-02-15T06:00:00;5.4;74
77700;DHT22;66867;42.658;23.320;2023-02-15T06:01:07;5.4;74
77700;DHT22;66867;42.658;23.320;2023-02-15T06:02:00;5.4;74
77700;DHT22;66867;42.658;23.320;2023-02-15T06:03:00;5.3;74
77700;DHT22;66867;42.658;23.320;2023-02-15T06:04:00;5.4;75
77700;DHT22;66867;42.658;23.320;2023-02-15T06:05:00;5.4;74
77700;DHT22;66867;42.658;23.320;2023-02-15T06:06:00;5.4;75
77700;DHT22;66867;42.658;23.320;2023-02-15T06:07:00;5.4;74
77700;DHT22;66867;42.658;23.320;2023-02-15T06:08:00;5.4;75
77700;DHT22;66867;42.658;23.320;2023-02-15T06:09:00;5.4;75
77700;DHT22;66867;42.658;23.320;2023-02-15T06:10:00;5.4;75
77700;DHT22;66867;42.658;23.320;2023-02-15T06:11:00;5.5;74
77700;DHT22;66867;42.658;23.320;2023-02-15T06:12:00;5.5;75
77700;DHT22;66867;42.658;23.320;2023-02-15T06:13:00;5.4;75
77700;DHT22;66867;42.658;23.320;2023-02-15T06:14:00;5.5;75
77700;DHT22;66867;42.658;23.320;2023-02-15T06:15:00;5.5;75
77700;DHT22;66867;42.658;23.320;2023-02-15T06:16:00;5.4;75
77700;DHT22;66867;42.658;23.320;2023-02-15T06:17:00;5.4;75
77700;DHT22;66867;42.658;23.320;2023-02-15T06:18:00;5.5;75
77700;DHT22;66867;42.658;23.320;2023-02-15T06:19:00;5.5;75
77700;DHT22;66867;42.658;23.320;2023-02-15T06:20:00;5.5;75
77700;DHT22;66867;42.658;23.320;2023-02-15T06:21:00;5.5;75
77700;DHT22;66867;42.658;23.320;2023-02-15T06:22:00;5.5;75
77700;DHT22;66867;42.658;23.320;2023-02-15T06:23:00;5.5;75
77700;DHT22;66867;42.658;23.320;2023-02-15T06:24:00;5.5;75
77700;DHT22;66867;42.658;23.320;2023-02-15T06:25:00;5.6;75
77700;DHT22;66867;42.658;23.320;2023-02-15T06:26:00;5.7;74
77700;DHT22;66867;42.658;23.320;2023-02-15T06:27:00;5.8;74
77700;DHT22;66867;42.658;23.320;2023-02-15T06:28:00;5.7;74
77700;DHT22;66867;42.658;23.320;2023-02-15T06:29:00;5.6;74
77700;DHT22;66867;42.658;23.320;2023-02-15T06:30:00;5.6;74
77700;DHT22;66867;42.658;23.320;2023-02-15T06:31:00;5.7;74
77700;DHT22;66867;42.658;23.320;2023-02-15T06:32:00;5.6;74
77700;DHT22;66867;42.658;23.320;2023-02-15T06:38:00;5.6;75
77700;DHT22;66867;42.658;23.320;2023-02-15T06:39:00;5.7;74
77700;DHT22;66867;42.658;23.320;2023-02-15T06:40:00;5.7;74
77700;DHT22;66867;42.658;23.320;2023-02-15T06:41:00;5.7;74
77700;DHT22;66867;42.658;23.320;2023-02-15T06:42:00;5.7;74
77700;DHT22;66867;42.658;23.320;2023-02-15T06:43:00;5.7;74
77700;DHT22;66867;42.658;23.320;2023-02-15T06:44:00;5.7;74
77700;DHT22;66867;42.658;23.320;2023-02-15T06:45:00;5.7;74
77700;DHT22;66867;42.658;23.320;2023-02-15T06:46:00;5.7;74
77700;DHT22;66867;42.658;23.320;2023-02-15T06:47:00;5.7;74
77700;DHT22;66867;42.658;23.320;2023-02-15T06:48:00;5.8;74
77700;DHT22;66867;42.658;23.320;2023-02-15T06:49:00;5.8;74
77700;DHT22;66867;42.658;23.320;2023-02-15T06:50:00;5.7;74
77700;DHT22;66867;42.658;23.320;2023-02-15T06:51:00;5.8;74
77700;DHT22;66867;42.658;23.320;2023-02-15T06:52:00;5.8;74
77700;DHT22;66867;42.658;23.320;2023-02-15T06:53:00;5.9;74
77700;DHT22;66867;42.658;23.320;2023-02-15T06:54:00;5.9;74
77700;DHT22;66867;42.658;23.320;2023-02-15T06:55:00;5.8;74
77700;DHT22;66867;42.658;23.320;2023-02-15T06:56:01;5.9;74
77700;DHT22;66867;42.658;23.320;2023-02-15T06:57:00;5.9;74
77700;DHT22;66867;42.658;23.320;2023-02-15T06:58:00;5.8;74
77700;DHT22;66867;42.658;23.320;2023-02-15T06:59:00;5.8;74
77700;DHT22;66867;42.658;23.320;2023-02-15T07:00:00;5.8;74
77700;DHT22;66867;42.658;23.320;2023-02-15T07:01:00;5.8;74
77700;DHT22;66867;42.658;23.320;2023-02-15T07:02:00;5.8;74
77700;DHT22;66867;42.658;23.320;2023-02-15T07:03:00;5.7;74
77700;DHT22;66867;42.658;23.320;2023-02-15T07:04:00;5.7;74
77700;DHT22;66867;42.658;23.320;2023-02-15T07:05:00;5.8;75
77700;DHT22;66867;42.658;23.320;2023-02-15T07:06:01;5.8;75
77700;DHT22;66867;42.658;23.320;2023-02-15T07:07:00;5.9;74
77700;DHT22;66867;42.658;23.320;2023-02-15T07:08:00;6.0;74
77700;DHT22;66867;42.658;23.320;2023-02-15T07:09:00;6.0;75
77700;DHT22;66867;42.658;23.320;2023-02-15T07:10:00;6.0;74
77700;DHT22;66867;42.658;23.320;2023-02-15T07:11:00;6.0;74
77700;DHT22;66867;42.658;23.320;2023-02-15T07:12:00;6.0;74
77700;DHT22;66867;42.658;23.320;2023-02-15T07:13:00;6.0;76
77700;DHT22;66867;42.658;23.320;2023-02-15T07:14:00;6.0;74
77700;DHT22;66867;42.658;23.320;2023-02-15T07:15:00;6.1;75
77700;DHT22;66867;42.658;23.320;2023-02-15T07:16:00;6.1;73
77700;DHT22;66867;42.658;23.320;2023-02-15T07:17:00;6.1;74
77700;DHT22;66867;42.658;23.320;2023-02-15T07:18:00;6.2;73